sensor_id;sensor_type;location;lat;lon;timestamp;pressure;altitude;pressure_sealevel;temperature;humidity
14594;BME280;7383;52.354;9.756;2023-02-17T00:01:08;-12618.44;;;9.36;100.00
14594;BME280;7383;52.354;9.756;2023-02-17T00:03:35;-12618.69;;;9.37;100.00
14594;BME280;7383;52.354;9.756;2023-02-17T00:06:04;-12619.66;;;9.43;100.00
14594;BME280;7383;52.354;9.756;2023-02-17T00:08:31;-12620.00;;;9.45;100.00
14594;BME280;7383;52.354;9.756;2023-02-17T00:10:59;-12620.53;;;9.48;100.00
14594;BME280;7383;52.354;9.756;2023-02-17T00:13:25;-12620.09;;;9.46;100.00
14594;BME280;7383;52.354;9.756;2023-02-17T00:15:52;-12620.72;;;9.49;100.00
14594;BME280;7383;52.354;9.756;2023-02-17T00:18:18;-12621.50;;;9.54;100.00
14594;BME280;7383;52.354;9.756;2023-02-17T00:20:45;-12621.31;;;9.53;100.00
14594;BME280;7383;52.354;9.756;2023-02-17T00:23:11;-12621.59;;;9.54;100.00
14594;BME280;7383;52.354;9.756;2023-02-17T00:25:38;-12621.66;;;9.55;100.00
14594;BME280;7383;52.354;9.756;2023-02-17T00:28:06;-12621.94;;;9.56;100.00
14594;BME280;7383;52.354;9.756;2023-02-17T00:30:32;-12622.19;;;9.58;100.00
14594;BME280;7383;52.354;9.756;2023-02-17T00:32:59;-12621.84;;;9.56;100.00
14594;BME280;7383;52.354;9.756;2023-02-17T00:35:25;-12621.94;;;9.56;100.00
14594;BME280;7383;52.354;9.756;2023-02-17T00:37:52;-12621.50;;;9.54;100.00
14594;BME280;7383;52.354;9.756;2023-02-17T00:40:18;-12622.53;;;9.60;100.00
14594;BME280;7383;52.354;9.756;2023-02-17T00:42:45;-12623.41;;;9.65;100.00
14594;BME280;7383;52.354;9.756;2023-02-17T00:45:14;-12624.38;;;9.70;100.00
14594;BME280;7383;52.354;9.756;2023-02-17T00:47:41;-12624.91;;;9.73;100.00
14594;BME280;7383;52.354;9.756;2023-02-17T00:50:08;-12625.44;;;9.76;100.00
14594;BME280;7383;52.354;9.756;2023-02-17T00:52:34;-12625.50;;;9.77;100.00
14594;BME280;7383;52.354;9.756;2023-02-17T00:55:01;-12625.88;;;9.79;100.00
14594;BME280;7383;52.354;9.756;2023-02-17T00:57:27;-12626.31;;;9.81;100.00
14594;BME280;7383;52.354;9.756;2023-02-17T00:59:56;-12626.75;;;9.84;100.00
14594;BME280;7383;52.354;9.756;2023-02-17T01:02:24;-12627.28;;;9.87;100.00
14594;BME280;7383;52.354;9.756;2023-02-17T01:04:51;-12627.78;;;9.90;100.00
14594;BME280;7383;52.354;9.756;2023-02-17T01:07:17;-12628.06;;;9.92;100.00
14594;BME280;7383;52.354;9.756;2023-02-17T01:09:43;-12628.31;;;9.93;100.00
14594;BME280;7383;52.354;9.756;2023-02-17T01:12:10;-12628.50;;;9.94;100.00
14594;BME280;7383;52.354;9.756;2023-02-17T01:14:37;-12628.66;;;9.95;100.00
14594;BME280;7383;52.354;9.756;2023-02-17T01:17:03;-12629.00;;;9.97;100.00
14594;BME280;7383;52.354;9.756;2023-02-17T01:19:31;-12629.53;;;10.00;100.00
14594;BME280;7383;52.354;9.756;2023-02-17T01:21:58;-12630.25;;;10.04;100.00
14594;BME280;7383;52.354;9.756;2023-02-17T01:24:24;-12630.06;;;10.03;100.00
14594;BME280;7383;52.354;9.756;2023-02-17T01:26:52;-12630.25;;;10.04;100.00
14594;BME280;7383;52.354;9.756;2023-02-17T01:29:18;-12630.25;;;10.04;100.00
14594;BME280;7383;52.354;9.756;2023-02-17T01:31:45;-12630.69;;;10.07;100.00
14594;BME280;7383;52.354;9.756;2023-02-17T01:34:11;-12631.28;;;10.10;100.00
14594;BME280;7383;52.354;9.756;2023-02-17T01:36:39;-12632.00;;;10.14;100.00
14594;BME280;7383;52.354;9.756;2023-02-17T01:39:06;-12632.34;;;10.16;100.00
14594;BME280;7383;52.354;9.756;2023-02-17T01:41:32;-12632.69;;;10.18;100.00
14594;BME280;7383;52.354;9.756;2023-02-17T01:44:04;-12632.06;;;10.15;100.00
14594;BME280;7383;52.354;9.756;2023-02-17T01:46:31;-12631.81;;;10.13;100.00
14594;BME280;7383;52.354;9.756;2023-02-17T01:48:57;-12631.91;;;10.14;100.00
14594;BME280;7383;52.354;9.756;2023-02-17T01:51:27;-12631.91;;;10.14;100.00
14594;BME280;7383;52.354;9.756;2023-02-17T01:54:00;-12632.34;;;10.16;100.00
14594;BME280;7383;52.354;9.756;2023-02-17T01:56:28;-12632.25;;;10.16;100.00
14594;BME280;7383;52.354;9.756;2023-02-17T01:59:00;-12632.69;;;10.18;100.00
14594;BME280;7383;52.354;9.756;2023-02-17T02:01:28;-12632.78;;;10.19;100.00
14594;BME280;7383;52.354;9.756;2023-02-17T02:03:56;-12633.47;;;10.23;100.00
14594;BME280;7383;52.354;9.756;2023-02-17T02:06:25;-12633.66;;;10.24;100.00
14594;BME280;7383;52.354;9.756;2023-02-17T02:08:57;-12634.34;;;10.28;100.00
14594;BME280;7383;52.354;9.756;2023-02-17T02:11:26;-12634.78;;;10.30;100.00
14594;BME280;7383;52.354;9.756;2023-02-17T02:13:52;-12635.06;;;10.32;100.00
14594;BME280;7383;52.354;9.756;2023-02-17T02:16:23;-12635.75;;;10.36;100.00
14594;BME280;7383;52.354;9.756;2023-02-17T02:18:54;-12636.19;;;10.38;100.00
14594;BME280;7383;52.354;9.756;2023-02-17T02:21:45;-12636.97;;;10.43;100.00
14594;BME280;7383;52.354;9.756;2023-02-17T02:24:27;-12637.41;;;10.46;100.00
14594;BME280;7383;52.354;9.756;2023-02-17T02:27:13;-12637.94;;;10.49;100.00
14594;BME280;7383;52.354;9.756;2023-02-17T02:29:57;-12638.47;;;10.52;100.00
14594;BME280;7383;52.354;9.756;2023-02-17T02:32:39;-12638.81;;;10.54;100.00
14594;BME280;7383;52.354;9.756;2023-02-17T02:35:12;-12639.06;;;10.55;100.00
14594;BME280;7383;52.354;9.756;2023-02-17T02:37:45;-12639.41;;;10.57;100.00
14594;BME280;7383;52.354;9.756;2023-02-17T02:40:14;-12640.03;;;10.61;100.00
14594;BME280;7383;52.354;9.756;2023-02-17T02:42:42;-12640.47;;;10.63;100.00
14594;BME280;7383;52.354;9.756;2023-02-17T02:45:10;-12640.56;;;10.64;100.00
14594;BME280;7383;52.354;9.756;2023-02-17T02:47:47;-12641.06;;;10.67;100.00
14594;BME280;7383;52.354;9.756;2023-02-17T02:50:17;-12641.50;;;10.69;100.00
14594;BME280;7383;52.354;9.756;2023-02-17T02:52:57;-12641.94;;;10.72;100.00
14594;BME280;7383;52.354;9.756;2023-02-17T02:55:38;-12642.03;;;10.72;100.00
14594;BME280;7383;52.354;9.756;2023-02-17T02:58:15;-12642.56;;;10.75;100.00
14594;BME280;7383;52.354;9.756;2023-02-17T03:00:48;-12643.00;;;10.78;100.00
14594;BME280;7383;52.354;9.756;2023-02-17T03:03:23;-12643.25;;;10.79;100.00
14594;BME280;7383;52.354;9.756;2023-02-17T03:05:56;-12643.69;;;10.82;100.00
14594;BME280;7383;52.354;9.756;2023-02-17T03:08:28;-12644.03;;;10.84;100.00
14594;BME280;7383;52.354;9.756;2023-02-17T03:11:02;-12644.47;;;10.86;100.00
14594;BME280;7383;52.354;9.756;2023-02-17T03:13:31;-12644.66;;;10.88;100.00
14594;BME280;7383;52.354;9.756;2023-02-17T03:15:58;-12645.19;;;10.91;100.00
14594;BME280;7383;52.354;9.756;2023-02-17T03:18:26;-12644.91;;;10.89;100.00
14594;BME280;7383;52.354;9.756;2023-02-17T03:20:55;-12645.19;;;10.91;100.00
14594;BME280;7383;52.354;9.756;2023-02-17T03:23:22;-12645.34;;;10.92;100.00
14594;BME280;7383;52.354;9.756;2023-02-17T03:25:49;-12645.63;;;10.93;100.00
14594;BME280;7383;52.354;9.756;2023-02-17T03:28:15;-12645.78;;;10.94;100.00
14594;BME280;7383;52.354;9.756;2023-02-17T03:30:42;-12645.97;;;10.95;100.00
14594;BME280;7383;52.354;9.756;2023-02-17T03:33:09;-12645.97;;;10.95;100.00
14594;BME280;7383;52.354;9.756;2023-02-17T03:35:37;-12646.41;;;10.98;100.00
14594;BME280;7383;52.354;9.756;2023-02-17T03:38:03;-12646.22;;;10.97;100.00
14594;BME280;7383;52.354;9.756;2023-02-17T03:40:30;-12646.50;;;10.98;100.00
14594;BME280;7383;52.354;9.756;2023-02-17T03:42:56;-12646.66;;;10.99;100.00
14594;BME280;7383;52.354;9.756;2023-02-17T03:45:23;-12647.00;;;11.01;100.00
14594;BME280;7383;52.354;9.756;2023-02-17T03:47:49;-12647.09;;;11.02;100.00
14594;BME280;7383;52.354;9.756;2023-02-17T03:50:16;-12647.38;;;11.03;100.00
14594;BME280;7383;52.354;9.756;2023-02-17T03:52:45;-12647.19;;;11.02;100.00
14594;BME280;7383;52.354;9.756;2023-02-17T03:55:11;-12647.28;;;11.03;100.00
14594;BME280;7383;52.354;9.756;2023-02-17T03:57:38;-12647.44;;;11.04;100.00
14594;BME280;7383;52.354;9.756;2023-02-17T04:00:05;-12647.63;;;11.05;100.00
14594;BME280;7383;52.354;9.756;2023-02-17T04:02:32;-12647.72;;;11.05;100.00
14594;BME280;7383;52.354;9.756;2023-02-17T04:04:58;-12648.06;;;11.07;100.00
14594;BME280;7383;52.354;9.756;2023-02-17T04:07:25;-12648.06;;;11.07;100.00
14594;BME280;7383;52.354;9.756;2023-02-17T04:09:53;-12648.16;;;11.08;100.00
14594;BME280;7383;52.354;9.756;2023-02-17T04:12:19;-12647.72;;;11.05;100.00
14594;BME280;7383;52.354;9.756;2023-02-17T04:14:46;-12647.81;;;11.06;100.00
14594;BME280;7383;52.354;9.756;2023-02-17T04:17:12;-12647.81;;;11.06;100.00
14594;BME280;7383;52.354;9.756;2023-02-17T04:19:39;-12648.16;;;11.08;100.00
14594;BME280;7383;52.354;9.756;2023-02-17T04:22:05;-12648.31;;;11.09;100.00
14594;BME280;7383;52.354;9.756;2023-02-17T04:24:33;-12648.25;;;11.08;100.00
14594;BME280;7383;52.354;9.756;2023-02-17T04:27:01;-12647.81;;;11.06;100.00
14594;BME280;7383;52.354;9.756;2023-02-17T04:29:28;-12648.06;;;11.07;100.00
14594;BME280;7383;52.354;9.756;2023-02-17T04:31:54;-12648.25;;;11.08;100.00
14594;BME280;7383;52.354;9.756;2023-02-17T04:34:20;-12648.31;;;11.09;100.00
14594;BME280;7383;52.354;9.756;2023-02-17T04:36:47;-12648.31;;;11.09;100.00
14594;BME280;7383;52.354;9.756;2023-02-17T04:39:13;-12648.84;;;11.12;100.00
14594;BME280;7383;52.354;9.756;2023-02-17T04:41:40;-12648.84;;;11.12;100.00
14594;BME280;7383;52.354;9.756;2023-02-17T04:44:08;-12648.59;;;11.10;100.00
14594;BME280;7383;52.354;9.756;2023-02-17T04:46:34;-12648.41;;;11.09;100.00
14594;BME280;7383;52.354;9.756;2023-02-17T04:49:00;-12648.59;;;11.10;100.00
14594;BME280;7383;52.354;9.756;2023-02-17T04:51:27;-12648.84;;;11.12;100.00
14594;BME280;7383;52.354;9.756;2023-02-17T04:53:54;-12648.84;;;11.12;100.00
14594;BME280;7383;52.354;9.756;2023-02-17T04:56:20;-12649.09;;;11.13;100.00
14594;BME280;7383;52.354;9.756;2023-02-17T04:58:46;-12648.94;;;11.12;100.00
14594;BME280;7383;52.354;9.756;2023-02-17T05:01:14;-12648.66;;;11.11;100.00
14594;BME280;7383;52.354;9.756;2023-02-17T05:03:41;-12649.09;;;11.13;100.00
14594;BME280;7383;52.354;9.756;2023-02-17T05:06:07;-12649.09;;;11.13;100.00
14594;BME280;7383;52.354;9.756;2023-02-17T05:08:34;-12649.28;;;11.14;100.00
14594;BME280;7383;52.354;9.756;2023-02-17T05:11:00;-12648.94;;;11.12;100.00
14594;BME280;7383;52.354;9.756;2023-02-17T05:13:26;-12648.75;;;11.11;100.00
14594;BME280;7383;52.354;9.756;2023-02-17T05:15:53;-12648.75;;;11.11;100.00
14594;BME280;7383;52.354;9.756;2023-02-17T05:18:21;-12648.41;;;11.09;100.00
14594;BME280;7383;52.354;9.756;2023-02-17T05:20:47;-12648.75;;;11.11;100.00
14594;BME280;7383;52.354;9.756;2023-02-17T05:23:13;-12649.09;;;11.13;100.00
14594;BME280;7383;52.354;9.756;2023-02-17T05:25:40;-12649.09;;;11.13;100.00
14594;BME280;7383;52.354;9.756;2023-02-17T05:28:06;-12649.09;;;11.13;100.00
14594;BME280;7383;52.354;9.756;2023-02-17T05:30:33;-12649.03;;;11.13;100.00
14594;BME280;7383;52.354;9.756;2023-02-17T05:32:59;-12649.28;;;11.14;100.00
14594;BME280;7383;52.354;9.756;2023-02-17T05:35:27;-12649.47;;;11.15;100.00
14594;BME280;7383;52.354;9.756;2023-02-17T05:37:53;-12649.91;;;11.18;100.00
14594;BME280;7383;52.354;9.756;2023-02-17T05:40:20;-12650.25;;;11.20;100.00
14594;BME280;7383;52.354;9.756;2023-02-17T05:42:46;-12650.84;;;11.23;100.00
14594;BME280;7383;52.354;9.756;2023-02-17T05:45:13;-12650.75;;;11.23;100.00
14594;BME280;7383;52.354;9.756;2023-02-17T05:47:39;-12651.19;;;11.25;100.00
14594;BME280;7383;52.354;9.756;2023-02-17T05:50:06;-12651.81;;;11.29;100.00
14594;BME280;7383;52.354;9.756;2023-02-17T05:52:35;-12652.06;;;11.30;100.00
14594;BME280;7383;52.354;9.756;2023-02-17T05:55:01;-12652.41;;;11.32;100.00
14594;BME280;7383;52.354;9.756;2023-02-17T05:57:29;-12652.50;;;11.33;100.00
14594;BME280;7383;52.354;9.756;2023-02-17T05:59:55;-12652.69;;;11.34;100.00
14594;BME280;7383;52.354;9.756;2023-02-17T06:02:22;-12652.69;;;11.34;100.00
14594;BME280;7383;52.354;9.756;2023-02-17T06:04:48;-12652.94;;;11.35;100.00
14594;BME280;7383;52.354;9.756;2023-02-17T06:07:14;-12653.13;;;11.36;100.00
14594;BME280;7383;52.354;9.756;2023-02-17T06:09:42;-12653.47;;;11.39;100.00
14594;BME280;7383;52.354;9.756;2023-02-17T06:12:09;-12653.47;;;11.39;100.00
14594;BME280;7383;52.354;9.756;2023-02-17T06:14:35;-12653.72;;;11.40;100.00
14594;BME280;7383;52.354;9.756;2023-02-17T06:17:02;-12654.25;;;11.43;100.00
14594;BME280;7383;52.354;9.756;2023-02-17T06:19:28;-12654.34;;;11.44;100.00
14594;BME280;7383;52.354;9.756;2023-02-17T06:21:55;-12654.53;;;11.45;100.00
14594;BME280;7383;52.354;9.756;2023-02-17T06:24:21;-12654.78;;;11.46;100.00
14594;BME280;7383;52.354;9.756;2023-02-17T06:26:49;-12655.31;;;11.49;100.00
14594;BME280;7383;52.354;9.756;2023-02-17T06:29:15;-12655.22;;;11.49;100.00
14594;BME280;7383;52.354;9.756;2023-02-17T06:31:42;-12655.66;;;11.51;100.00
14594;BME280;7383;52.354;9.756;2023-02-17T06:34:08;-12655.75;;;11.52;100.00
14594;BME280;7383;52.354;9.756;2023-02-17T06:36:35;-12655.66;;;11.51;100.00
14594;BME280;7383;52.354;9.756;2023-02-17T06:39:02;-12655.91;;;11.53;100.00
14594;BME280;7383;52.354;9.756;2023-02-17T06:41:28;-12656.25;;;11.55;100.00
14594;BME280;7383;52.354;9.756;2023-02-17T06:43:56;-12656.25;;;11.55;100.00
14594;BME280;7383;52.354;9.756;2023-02-17T06:46:23;-12656.44;;;11.56;100.00
14594;BME280;7383;52.354;9.756;2023-02-17T06:48:49;-12656.25;;;11.55;100.00
14594;BME280;7383;52.354;9.756;2023-02-17T06:51:16;-12656.63;;;11.57;100.00
14594;BME280;7383;52.354;9.756;2023-02-17T06:53:42;-12656.78;;;11.58;100.00
14594;BME280;7383;52.354;9.756;2023-02-17T06:56:08;-12656.88;;;11.58;100.00
14594;BME280;7383;52.354;9.756;2023-02-17T06:58:35;-12657.03;;;11.59;100.00
14594;BME280;7383;52.354;9.756;2023-02-17T07:01:04;-12657.22;;;11.60;100.00
14594;BME280;7383;52.354;9.756;2023-02-17T07:03:32;-12657.47;;;11.62;100.00
14594;BME280;7383;52.354;9.756;2023-02-17T07:05:59;-12657.75;;;11.63;100.00
14594;BME280;7383;52.354;9.756;2023-02-17T07:08:25;-12657.66;;;11.63;100.00
14594;BME280;7383;52.354;9.756;2023-02-17T07:10:52;-12657.66;;;11.63;100.00
14594;BME280;7383;52.354;9.756;2023-02-17T07:13:18;-12657.84;;;11.64;100.00
14594;BME280;7383;52.354;9.756;2023-02-17T07:15:45;-12657.91;;;11.64;100.00
14594;BME280;7383;52.354;9.756;2023-02-17T07:18:13;-12658.34;;;11.67;100.00
14594;BME280;7383;52.354;9.756;2023-02-17T07:20:39;-12658.53;;;11.68;100.00
14594;BME280;7383;52.354;9.756;2023-02-17T07:23:06;-12658.34;;;11.67;100.00
14594;BME280;7383;52.354;9.756;2023-02-17T07:25:32;-12658.69;;;11.69;100.00
14594;BME280;7383;52.354;9.756;2023-02-17T07:27:59;-12659.22;;;11.72;100.00
14594;BME280;7383;52.354;9.756;2023-02-17T07:30:25;-12659.75;;;11.75;100.00
14594;BME280;7383;52.354;9.756;2023-02-17T07:32:56;-12660.00;;;11.76;100.00
14594;BME280;7383;52.354;9.756;2023-02-17T07:35:28;-12660.19;;;11.77;100.00
14594;BME280;7383;52.354;9.756;2023-02-17T07:38:28;-12660.09;;;11.77;100.00
14594;BME280;7383;52.354;9.756;2023-02-17T07:47:48;-12660.28;;;11.78;100.00
14594;BME280;7383;52.354;9.756;2023-02-17T07:53:20;-12660.44;;;11.79;100.00
14594;BME280;7383;52.354;9.756;2023-02-17T07:55:54;-12660.44;;;11.79;100.00
14594;BME280;7383;52.354;9.756;2023-02-17T07:58:23;-12660.63;;;11.80;100.00
14594;BME280;7383;52.354;9.756;2023-02-17T08:00:52;-12660.97;;;11.82;100.00
14594;BME280;7383;52.354;9.756;2023-02-17T08:03:18;-12660.88;;;11.81;100.00
14594;BME280;7383;52.354;9.756;2023-02-17T08:05:45;-12661.41;;;11.84;100.00
14594;BME280;7383;52.354;9.756;2023-02-17T08:08:16;-12661.84;;;11.87;100.00
14594;BME280;7383;52.354;9.756;2023-02-17T08:10:59;-12662.03;;;11.88;100.00
14594;BME280;7383;52.354;9.756;2023-02-17T08:13:44;-12662.38;;;11.90;100.00
14594;BME280;7383;52.354;9.756;2023-02-17T08:16:11;-12662.72;;;11.92;100.00
14594;BME280;7383;52.354;9.756;2023-02-17T08:18:39;-12662.91;;;11.93;100.00
14594;BME280;7383;52.354;9.756;2023-02-17T08:21:09;-12662.97;;;11.94;100.00
14594;BME280;7383;52.354;9.756;2023-02-17T08:23:38;-12663.25;;;11.95;100.00
14594;BME280;7383;52.354;9.756;2023-02-17T08:26:04;-12663.31;;;11.96;100.00
14594;BME280;7383;52.354;9.756;2023-02-17T08:28:31;-12663.59;;;11.97;100.00
14594;BME280;7383;52.354;9.756;2023-02-17T08:30:58;-12663.84;;;11.99;100.00
14594;BME280;7383;52.354;9.756;2023-02-17T08:33:27;-12664.13;;;12.00;100.00
14594;BME280;7383;52.354;9.756;2023-02-17T08:35:53;-12664.38;;;12.02;100.00
14594;BME280;7383;52.354;9.756;2023-02-17T08:38:20;-12664.38;;;12.02;100.00
14594;BME280;7383;52.354;9.756;2023-02-17T08:40:48;-12664.38;;;12.02;100.00
14594;BME280;7383;52.354;9.756;2023-02-17T08:43:14;-12664.63;;;12.03;100.00
14594;BME280;7383;52.354;9.756;2023-02-17T08:45:41;-12664.81;;;12.04;100.00
14594;BME280;7383;52.354;9.756;2023-02-17T08:48:07;-12664.72;;;12.04;100.00
14594;BME280;7383;52.354;9.756;2023-02-17T08:50:33;-12664.97;;;12.05;100.00
14594;BME280;7383;52.354;9.756;2023-02-17T08:53:00;-12665.06;;;12.06;100.00
14594;BME280;7383;52.354;9.756;2023-02-17T08:55:26;-12665.34;;;12.07;100.00
14594;BME280;7383;52.354;9.756;2023-02-17T08:57:54;-12665.25;;;12.07;100.00
14594;BME280;7383;52.354;9.756;2023-02-17T09:00:21;-12665.84;;;12.10;100.00
14594;BME280;7383;52.354;9.756;2023-02-17T09:02:47;-12665.84;;;12.10;100.00
14594;BME280;7383;52.354;9.756;2023-02-17T09:05:14;-12665.69;;;12.09;100.00
14594;BME280;7383;52.354;9.756;2023-02-17T09:07:41;-12665.84;;;12.10;100.00
14594;BME280;7383;52.354;9.756;2023-02-17T09:10:09;-12666.19;;;12.12;100.00
14594;BME280;7383;52.354;9.756;2023-02-17T09:12:39;-12665.94;;;12.11;100.00
14594;BME280;7383;52.354;9.756;2023-02-17T09:15:13;-12665.94;;;12.11;100.00
14594;BME280;7383;52.354;9.756;2023-02-17T09:17:40;-12666.38;;;12.13;100.00
14594;BME280;7383;52.354;9.756;2023-02-17T09:20:07;-12666.81;;;12.16;100.00
14594;BME280;7383;52.354;9.756;2023-02-17T09:22:34;-12666.72;;;12.15;100.00
14594;BME280;7383;52.354;9.756;2023-02-17T09:25:01;-12667.06;;;12.17;100.00
14594;BME280;7383;52.354;9.756;2023-02-17T09:27:27;-12667.25;;;12.18;100.00
14594;BME280;7383;52.354;9.756;2023-02-17T09:29:53;-12667.06;;;12.17;100.00
14594;BME280;7383;52.354;9.756;2023-02-17T09:32:21;-12667.34;;;12.19;100.00
14594;BME280;7383;52.354;9.756;2023-02-17T09:34:48;-12667.78;;;12.21;100.00
14594;BME280;7383;52.354;9.756;2023-02-17T09:37:19;-12667.84;;;12.22;100.00
14594;BME280;7383;52.354;9.756;2023-02-17T09:39:46;-12668.56;;;12.26;100.00
14594;BME280;7383;52.354;9.756;2023-02-17T09:42:16;-12668.72;;;12.27;100.00
14594;BME280;7383;52.354;9.756;2023-02-17T09:44:47;-12669.06;;;12.29;100.00
14594;BME280;7383;52.354;9.756;2023-02-17T09:47:18;-12669.34;;;12.30;100.00
14594;BME280;7383;52.354;9.756;2023-02-17T09:49:49;-12669.25;;;12.30;100.00
14594;BME280;7383;52.354;9.756;2023-02-17T09:52:19;-12669.44;;;12.31;100.00
14594;BME280;7383;52.354;9.756;2023-02-17T09:54:55;-12670.03;;;12.34;100.00
14594;BME280;7383;52.354;9.756;2023-02-17T09:57:26;-12669.84;;;12.33;100.00
14594;BME280;7383;52.354;9.756;2023-02-17T09:59:58;-12670.13;;;12.35;100.00
14594;BME280;7383;52.354;9.756;2023-02-17T10:02:32;-12670.66;;;12.38;100.00
14594;BME280;7383;52.354;9.756;2023-02-17T10:05:04;-12670.72;;;12.39;100.00
14594;BME280;7383;52.354;9.756;2023-02-17T10:07:34;-12670.72;;;12.39;100.00
14594;BME280;7383;52.354;9.756;2023-02-17T10:10:06;-12670.81;;;12.39;100.00
14594;BME280;7383;52.354;9.756;2023-02-17T10:12:37;-12671.16;;;12.41;100.00
14594;BME280;7383;52.354;9.756;2023-02-17T10:15:08;-12671.34;;;12.42;100.00
14594;BME280;7383;52.354;9.756;2023-02-17T10:17:39;-12671.59;;;12.44;100.00
14594;BME280;7383;52.354;9.756;2023-02-17T10:20:10;-12671.59;;;12.44;100.00
14594;BME280;7383;52.354;9.756;2023-02-17T10:22:39;-12671.25;;;12.42;100.00
14594;BME280;7383;52.354;9.756;2023-02-17T10:25:13;-12670.91;;;12.40;100.00
14594;BME280;7383;52.354;9.756;2023-02-17T10:27:41;-12670.91;;;12.40;100.00
14594;BME280;7383;52.354;9.756;2023-02-17T10:30:21;-12671.00;;;12.40;100.00
14594;BME280;7383;52.354;9.756;2023-02-17T10:32:59;-12671.34;;;12.42;100.00
14594;BME280;7383;52.354;9.756;2023-02-17T10:35:39;-12671.25;;;12.42;100.00
14594;BME280;7383;52.354;9.756;2023-02-17T10:38:14;-12671.50;;;12.43;100.00
14594;BME280;7383;52.354;9.756;2023-02-17T10:40:44;-12671.59;;;12.44;100.00
14594;BME280;7383;52.354;9.756;2023-02-17T10:43:14;-12671.88;;;12.45;100.00
14594;BME280;7383;52.354;9.756;2023-02-17T10:45:45;-12672.22;;;12.47;100.00
14594;BME280;7383;52.354;9.756;2023-02-17T10:48:17;-12672.66;;;12.50;100.00
14594;BME280;7383;52.354;9.756;2023-02-17T10:50:46;-12673.25;;;12.53;100.00
14594;BME280;7383;52.354;9.756;2023-02-17T10:53:14;-12673.78;;;12.56;100.00
14594;BME280;7383;52.354;9.756;2023-02-17T10:55:52;-12674.13;;;12.58;100.00
14594;BME280;7383;52.354;9.756;2023-02-17T10:58:24;-12674.56;;;12.61;100.00
14594;BME280;7383;52.354;9.756;2023-02-17T11:00:54;-12674.91;;;12.63;100.00
14594;BME280;7383;52.354;9.756;2023-02-17T11:03:24;-12675.53;;;12.66;100.00
14594;BME280;7383;52.354;9.756;2023-02-17T11:05:55;-12675.44;;;12.66;100.00
14594;BME280;7383;52.354;9.756;2023-02-17T11:08:31;-12675.53;;;12.66;100.00
14594;BME280;7383;52.354;9.756;2023-02-17T11:11:01;-12676.03;;;12.69;100.00
14594;BME280;7383;52.354;9.756;2023-02-17T11:13:37;-12676.56;;;12.72;100.00
14594;BME280;7383;52.354;9.756;2023-02-17T11:16:04;-12676.47;;;12.72;100.00
14594;BME280;7383;52.354;9.756;2023-02-17T11:18:32;-12677.53;;;12.78;100.00
14594;BME280;7383;52.354;9.756;2023-02-17T11:21:05;-12678.41;;;12.83;100.00
14594;BME280;7383;52.354;9.756;2023-02-17T11:23:32;-12679.69;;;12.91;100.00
14594;BME280;7383;52.354;9.756;2023-02-17T11:26:06;-12680.66;;;12.96;100.00
14594;BME280;7383;52.354;9.756;2023-02-17T11:28:33;-12682.06;;;13.04;100.00
14594;BME280;7383;52.354;9.756;2023-02-17T11:30:59;-12683.69;;;13.14;100.00
14594;BME280;7383;52.354;9.756;2023-02-17T11:33:31;-12685.28;;;13.23;100.00
14594;BME280;7383;52.354;9.756;2023-02-17T11:35:59;-12686.75;;;13.31;100.00
14594;BME280;7383;52.354;9.756;2023-02-17T11:38:32;-12687.78;;;13.38;100.00
14594;BME280;7383;52.354;9.756;2023-02-17T11:41:00;-12688.56;;;13.42;100.00
14594;BME280;7383;52.354;9.756;2023-02-17T11:43:31;-12689.09;;;13.45;100.00
14594;BME280;7383;52.354;9.756;2023-02-17T11:46:05;-12690.47;;;13.53;100.00
14594;BME280;7383;52.354;9.756;2023-02-17T11:51:51;-12691.88;;;13.61;100.00
14594;BME280;7383;52.354;9.756;2023-02-17T11:54:23;-12693.78;;;13.72;100.00
14594;BME280;7383;52.354;9.756;2023-02-17T11:57:01;-12693.63;;;13.71;100.00
14594;BME280;7383;52.354;9.756;2023-02-17T11:59:42;-12693.97;;;13.73;100.00
14594;BME280;7383;52.354;9.756;2023-02-17T12:02:17;-12693.00;;;13.68;100.00
14594;BME280;7383;52.354;9.756;2023-02-17T12:05:09;-12691.97;;;13.62;100.00
14594;BME280;7383;52.354;9.756;2023-02-17T12:07:45;-12692.47;;;13.65;100.00
14594;BME280;7383;52.354;9.756;2023-02-17T12:10:22;-12693.09;;;13.68;100.00
14594;BME280;7383;52.354;9.756;2023-02-17T12:12:58;-12695.44;;;13.82;100.00
14594;BME280;7383;52.354;9.756;2023-02-17T12:15:41;-12699.34;;;14.05;100.00
14594;BME280;7383;52.354;9.756;2023-02-17T12:18:20;-12702.38;;;14.22;100.00
14594;BME280;7383;52.354;9.756;2023-02-17T12:20:55;-12702.75;;;14.24;100.00
14594;BME280;7383;52.354;9.756;2023-02-17T12:23:35;-12701.53;;;14.17;100.00
14594;BME280;7383;52.354;9.756;2023-02-17T12:26:17;-12700.31;;;14.10;100.00
14594;BME280;7383;52.354;9.756;2023-02-17T12:28:58;-12698.41;;;13.99;100.00
14594;BME280;7383;52.354;9.756;2023-02-17T12:31:54;-12696.84;;;13.90;100.00
14594;BME280;7383;52.354;9.756;2023-02-17T12:34:28;-12695.88;;;13.85;100.00
14594;BME280;7383;52.354;9.756;2023-02-17T12:37:37;-12695.28;;;13.81;100.00
14594;BME280;7383;52.354;9.756;2023-02-17T12:39:55;-12694.56;;;13.77;100.00
14594;BME280;7383;52.354;9.756;2023-02-17T12:42:27;-12693.69;;;13.72;100.00
14594;BME280;7383;52.354;9.756;2023-02-17T12:45:13;-12693.00;;;13.68;100.00
14594;BME280;7383;52.354;9.756;2023-02-17T12:47:48;-12692.47;;;13.65;100.00
14594;BME280;7383;52.354;9.756;2023-02-17T12:53:46;-12691.53;;;13.59;100.00
14594;BME280;7383;52.354;9.756;2023-02-17T12:56:41;-12690.91;;;13.56;100.00
14594;BME280;7383;52.354;9.756;2023-02-17T12:59:33;-12690.75;;;13.55;100.00
14594;BME280;7383;52.354;9.756;2023-02-17T13:02:05;-12690.84;;;13.55;100.00
14594;BME280;7383;52.354;9.756;2023-02-17T13:04:49;-12690.56;;;13.54;100.00
14594;BME280;7383;52.354;9.756;2023-02-17T13:07:35;-12690.66;;;13.54;100.00
14594;BME280;7383;52.354;9.756;2023-02-17T13:10:06;-12689.88;;;13.50;100.00
14594;BME280;7383;52.354;9.756;2023-02-17T13:12:54;-12689.78;;;13.49;100.00
14594;BME280;7383;52.354;9.756;2023-02-17T13:15:29;-12689.53;;;13.48;100.00
14594;BME280;7383;52.354;9.756;2023-02-17T13:17:57;-12689.72;;;13.49;100.00
14594;BME280;7383;52.354;9.756;2023-02-17T13:20:49;-12689.88;;;13.50;100.00